sensor_id;sensor_type;location;lat;lon;timestamp;pressure;altitude;pressure_sealevel;temperature;humidity
21545;BME280;10933;50.754;11.508;2023-07-29T00:01:21;99465.78;;;17.48;100.00
21545;BME280;10933;50.754;11.508;2023-07-29T00:03:47;99469.53;;;17.52;100.00
21545;BME280;10933;50.754;11.508;2023-07-29T00:06:13;99471.44;;;17.52;100.00
21545;BME280;10933;50.754;11.508;2023-07-29T00:08:39;99467.41;;;17.49;100.00
21545;BME280;10933;50.754;11.508;2023-07-29T00:11:05;99458.81;;;17.42;100.00
21545;BME280;10933;50.754;11.508;2023-07-29T00:13:31;99468.97;;;17.36;100.00
21545;BME280;10933;50.754;11.508;2023-07-29T00:15:57;99464.72;;;17.30;100.00
21545;BME280;10933;50.754;11.508;2023-07-29T00:18:23;99459.63;;;17.24;100.00
21545;BME280;10933;50.754;11.508;2023-07-29T00:20:50;99462.47;;;17.19;100.00
21545;BME280;10933;50.754;11.508;2023-07-29T00:23:17;99458.78;;;17.10;100.00
21545;BME280;10933;50.754;11.508;2023-07-29T00:25:45;99459.97;;;17.03;100.00
21545;BME280;10933;50.754;11.508;2023-07-29T00:28:12;99454.88;;;16.97;100.00
21545;BME280;10933;50.754;11.508;2023-07-29T00:30:38;99450.97;;;16.84;100.00
21545;BME280;10933;50.754;11.508;2023-07-29T00:33:04;99455.16;;;16.76;100.00
21545;BME280;10933;50.754;11.508;2023-07-29T00:35:30;99451.50;;;16.62;100.00
21545;BME280;10933;50.754;11.508;2023-07-29T00:37:56;99452.88;;;16.65;100.00
21545;BME280;10933;50.754;11.508;2023-07-29T00:40:23;99444.75;;;16.60;100.00
21545;BME280;10933;50.754;11.508;2023-07-29T00:42:50;99446.38;;;16.61;100.00
21545;BME280;10933;50.754;11.508;2023-07-29T00:45:16;99441.28;;;16.54;100.00
21545;BME280;10933;50.754;11.508;2023-07-29T00:47:43;99433.97;;;16.49;100.00
21545;BME280;10933;50.754;11.508;2023-07-29T00:50:13;99432.88;;;16.51;100.00
21545;BME280;10933;50.754;11.508;2023-07-29T00:52:41;99429.13;;;16.46;100.00
21545;BME280;10933;50.754;11.508;2023-07-29T00:55:07;99424.63;;;16.37;100.00
21545;BME280;10933;50.754;11.508;2023-07-29T00:57:34;99433.44;;;16.29;100.00
21545;BME280;10933;50.754;11.508;2023-07-29T01:00:01;99428.31;;;16.27;100.00
21545;BME280;10933;50.754;11.508;2023-07-29T01:02:28;99428.81;;;16.29;100.00
21545;BME280;10933;50.754;11.508;2023-07-29T01:04:57;99434.69;;;16.36;100.00
21545;BME280;10933;50.754;11.508;2023-07-29T01:07:47;99443.97;;;16.35;100.00
21545;BME280;10933;50.754;11.508;2023-07-29T01:12:51;99431.47;;;16.34;100.00
21545;BME280;10933;50.754;11.508;2023-07-29T01:18:02;99422.06;;;16.45;100.00
21545;BME280;10933;50.754;11.508;2023-07-29T01:20:33;99423.25;;;16.39;100.00
21545;BME280;10933;50.754;11.508;2023-07-29T01:22:59;99429.09;;;16.52;100.00
21545;BME280;10933;50.754;11.508;2023-07-29T01:25:26;99422.28;;;16.49;100.00
21545;BME280;10933;50.754;11.508;2023-07-29T01:27:52;99432.63;;;16.52;100.00
21545;BME280;10933;50.754;11.508;2023-07-29T01:30:20;99431.22;;;16.55;100.00
21545;BME280;10933;50.754;11.508;2023-07-29T01:33:15;99433.63;;;16.56;100.00
21545;BME280;10933;50.754;11.508;2023-07-29T01:36:02;99430.53;;;16.63;100.00
21545;BME280;10933;50.754;11.508;2023-07-29T01:38:31;99431.13;;;16.60;100.00
21545;BME280;10933;50.754;11.508;2023-07-29T01:41:02;99431.63;;;16.62;100.00
21545;BME280;10933;50.754;11.508;2023-07-29T01:43:32;99433.25;;;16.63;100.00
21545;BME280;10933;50.754;11.508;2023-07-29T01:46:00;99424.81;;;16.64;100.00
21545;BME280;10933;50.754;11.508;2023-07-29T01:48:26;99433.56;;;16.61;100.00
21545;BME280;10933;50.754;11.508;2023-07-29T01:50:53;99431.06;;;16.65;100.00
21545;BME280;10933;50.754;11.508;2023-07-29T01:53:19;99424.56;;;16.61;100.00
21545;BME280;10933;50.754;11.508;2023-07-29T01:55:45;99426.09;;;16.48;100.00
21545;BME280;10933;50.754;11.508;2023-07-29T01:58:12;99424.56;;;16.42;100.00
21545;BME280;10933;50.754;11.508;2023-07-29T02:00:38;99427.88;;;16.39;100.00
21545;BME280;10933;50.754;11.508;2023-07-29T02:03:05;99431.84;;;16.46;100.00
21545;BME280;10933;50.754;11.508;2023-07-29T02:05:31;99428.91;;;16.43;100.00
21545;BME280;10933;50.754;11.508;2023-07-29T02:07:57;99424.47;;;16.28;100.00
21545;BME280;10933;50.754;11.508;2023-07-29T02:10:23;99420.25;;;16.17;100.00
21545;BME280;10933;50.754;11.508;2023-07-29T02:12:50;99418.63;;;16.16;100.00
21545;BME280;10933;50.754;11.508;2023-07-29T02:15:16;99409.50;;;16.07;100.00
21545;BME280;10933;50.754;11.508;2023-07-29T02:17:42;99406.38;;;15.95;100.00
21545;BME280;10933;50.754;11.508;2023-07-29T02:20:09;99401.00;;;15.89;100.00
21545;BME280;10933;50.754;11.508;2023-07-29T02:22:36;99398.50;;;15.93;100.00
21545;BME280;10933;50.754;11.508;2023-07-29T02:25:03;99406.44;;;15.89;100.00
21545;BME280;10933;50.754;11.508;2023-07-29T02:27:29;99400.94;;;15.95;100.00
21545;BME280;10933;50.754;11.508;2023-07-29T02:29:55;99403.06;;;15.98;100.00
21545;BME280;10933;50.754;11.508;2023-07-29T02:32:22;99402.53;;;15.96;100.00
21545;BME280;10933;50.754;11.508;2023-07-29T02:34:48;99406.47;;;15.84;100.00
21545;BME280;10933;50.754;11.508;2023-07-29T02:37:14;99407.38;;;15.75;100.00
21545;BME280;10933;50.754;11.508;2023-07-29T02:39:40;99408.03;;;15.67;100.00
21545;BME280;10933;50.754;11.508;2023-07-29T02:42:06;99412.69;;;15.61;100.00
21545;BME280;10933;50.754;11.508;2023-07-29T02:44:32;99411.63;;;15.57;100.00
21545;BME280;10933;50.754;11.508;2023-07-29T02:46:59;99403.00;;;15.50;100.00
21545;BME280;10933;50.754;11.508;2023-07-29T02:49:25;99404.66;;;15.46;100.00
21545;BME280;10933;50.754;11.508;2023-07-29T02:51:51;99404.66;;;15.46;100.00
21545;BME280;10933;50.754;11.508;2023-07-29T02:54:17;99391.97;;;15.36;100.00
21545;BME280;10933;50.754;11.508;2023-07-29T02:56:43;99398.06;;;15.28;100.00
21545;BME280;10933;50.754;11.508;2023-07-29T02:59:09;99402.19;;;15.20;100.00
21545;BME280;10933;50.754;11.508;2023-07-29T03:01:36;99389.69;;;15.19;100.00
21545;BME280;10933;50.754;11.508;2023-07-29T03:04:02;99399.47;;;15.20;100.00
21545;BME280;10933;50.754;11.508;2023-07-29T03:06:28;99399.97;;;15.22;100.00
21545;BME280;10933;50.754;11.508;2023-07-29T03:08:55;99396.94;;;15.29;100.00
21545;BME280;10933;50.754;11.508;2023-07-29T03:11:21;99396.09;;;15.34;100.00
21545;BME280;10933;50.754;11.508;2023-07-29T03:13:47;99396.97;;;15.24;100.00
21545;BME280;10933;50.754;11.508;2023-07-29T03:16:15;99395.84;;;15.30;100.00
21545;BME280;10933;50.754;11.508;2023-07-29T03:18:42;99398.06;;;15.23;100.00
21545;BME280;10933;50.754;11.508;2023-07-29T03:21:09;99391.38;;;15.15;100.00
21545;BME280;10933;50.754;11.508;2023-07-29T03:23:36;99390.84;;;15.13;100.00
21545;BME280;10933;50.754;11.508;2023-07-29T03:26:04;99379.53;;;15.01;100.00
21545;BME280;10933;50.754;11.508;2023-07-29T03:28:40;99383.38;;;14.95;100.00
21545;BME280;10933;50.754;11.508;2023-07-29T03:31:07;99374.19;;;14.91;100.00
21545;BME280;10933;50.754;11.508;2023-07-29T03:33:33;99375.50;;;14.93;100.00
21545;BME280;10933;50.754;11.508;2023-07-29T03:35:59;99368.75;;;14.91;100.00
21545;BME280;10933;50.754;11.508;2023-07-29T03:38:26;99367.38;;;14.93;100.00
21545;BME280;10933;50.754;11.508;2023-07-29T03:40:52;99369.50;;;14.96;100.00
21545;BME280;10933;50.754;11.508;2023-07-29T03:43:19;99366.25;;;14.94;100.00
21545;BME280;10933;50.754;11.508;2023-07-29T03:45:45;99360.31;;;14.92;100.00
21545;BME280;10933;50.754;11.508;2023-07-29T03:48:11;99357.03;;;14.95;99.59
21545;BME280;10933;50.754;11.508;2023-07-29T03:50:37;99358.63;;;14.96;99.25
21545;BME280;10933;50.754;11.508;2023-07-29T03:53:04;99350.97;;;15.04;99.04
21545;BME280;10933;50.754;11.508;2023-07-29T03:55:31;99348.50;;;15.07;98.89
21545;BME280;10933;50.754;11.508;2023-07-29T03:57:58;99349.06;;;15.04;98.78
21545;BME280;10933;50.754;11.508;2023-07-29T04:00:24;99336.81;;;15.07;98.67
21545;BME280;10933;50.754;11.508;2023-07-29T04:02:51;99338.97;;;15.10;98.52
21545;BME280;10933;50.754;11.508;2023-07-29T04:05:17;99351.19;;;15.12;98.30
21545;BME280;10933;50.754;11.508;2023-07-29T04:07:43;99351.19;;;15.12;98.22
21545;BME280;10933;50.754;11.508;2023-07-29T04:10:10;99365.28;;;15.14;98.14
21545;BME280;10933;50.754;11.508;2023-07-29T04:12:36;99385.34;;;15.18;98.05
21545;BME280;10933;50.754;11.508;2023-07-29T04:15:02;99382.31;;;15.25;97.98
21545;BME280;10933;50.754;11.508;2023-07-29T04:17:28;99390.13;;;15.31;97.92
21545;BME280;10933;50.754;11.508;2023-07-29T04:19:54;99399.72;;;15.53;97.75
21545;BME280;10933;50.754;11.508;2023-07-29T04:22:20;99403.81;;;15.50;97.83
21545;BME280;10933;50.754;11.508;2023-07-29T04:24:47;99406.13;;;15.67;97.76
21545;BME280;10933;50.754;11.508;2023-07-29T04:27:13;99418.06;;;16.19;97.45
21545;BME280;10933;50.754;11.508;2023-07-29T04:29:39;99439.06;;;16.80;97.41
21545;BME280;10933;50.754;11.508;2023-07-29T04:32:06;99443.78;;;17.58;97.79
21545;BME280;10933;50.754;11.508;2023-07-29T04:34:32;99455.84;;;18.17;99.77
21545;BME280;10933;50.754;11.508;2023-07-29T04:36:58;99474.19;;;18.94;100.00
21545;BME280;10933;50.754;11.508;2023-07-29T04:39:24;99491.69;;;19.74;100.00
21545;BME280;10933;50.754;11.508;2023-07-29T04:41:50;99494.38;;;20.27;100.00
21545;BME280;10933;50.754;11.508;2023-07-29T04:44:17;99504.75;;;21.13;100.00
21545;BME280;10933;50.754;11.508;2023-07-29T04:46:43;99483.28;;;21.07;100.00
21545;BME280;10933;50.754;11.508;2023-07-29T04:49:09;99476.69;;;22.15;100.00
21545;BME280;10933;50.754;11.508;2023-07-29T04:51:35;99429.44;;;22.30;100.00
21545;BME280;10933;50.754;11.508;2023-07-29T04:54:03;99306.63;;;21.93;100.00
21545;BME280;10933;50.754;11.508;2023-07-29T04:56:29;99260.59;;;20.49;100.00
21545;BME280;10933;50.754;11.508;2023-07-29T04:58:55;99249.13;;;20.39;100.00
21545;BME280;10933;50.754;11.508;2023-07-29T05:01:21;99245.94;;;21.27;100.00
21545;BME280;10933;50.754;11.508;2023-07-29T05:03:47;99260.03;;;21.46;100.00
21545;BME280;10933;50.754;11.508;2023-07-29T05:06:13;99258.88;;;22.15;100.00
21545;BME280;10933;50.754;11.508;2023-07-29T05:08:39;99274.50;;;23.22;100.00
21545;BME280;10933;50.754;11.508;2023-07-29T05:11:05;99294.28;;;23.48;100.00
21545;BME280;10933;50.754;11.508;2023-07-29T05:13:31;99309.75;;;23.29;100.00
21545;BME280;10933;50.754;11.508;2023-07-29T05:15:58;99319.44;;;22.18;100.00
21545;BME280;10933;50.754;11.508;2023-07-29T05:18:24;99314.53;;;22.86;100.00
21545;BME280;10933;50.754;11.508;2023-07-29T05:20:50;99309.41;;;23.30;100.00
21545;BME280;10933;50.754;11.508;2023-07-29T05:23:16;99323.88;;;24.37;100.00
21545;BME280;10933;50.754;11.508;2023-07-29T05:25:42;99333.81;;;23.89;100.00
21545;BME280;10933;50.754;11.508;2023-07-29T05:28:08;99348.16;;;23.25;100.00
21545;BME280;10933;50.754;11.508;2023-07-29T05:30:34;99333.03;;;23.43;100.00
21545;BME280;10933;50.754;11.508;2023-07-29T05:33:03;99323.53;;;23.53;100.00
21545;BME280;10933;50.754;11.508;2023-07-29T05:35:30;99320.91;;;24.70;100.00
21545;BME280;10933;50.754;11.508;2023-07-29T05:37:56;99331.28;;;25.45;100.00
21545;BME280;10933;50.754;11.508;2023-07-29T05:40:22;99348.41;;;26.49;100.00
21545;BME280;10933;50.754;11.508;2023-07-29T05:42:48;99360.81;;;28.01;100.00
21545;BME280;10933;50.754;11.508;2023-07-29T05:45:15;99414.47;;;27.89;100.00
21545;BME280;10933;50.754;11.508;2023-07-29T05:47:41;99424.22;;;24.73;100.00
21545;BME280;10933;50.754;11.508;2023-07-29T05:50:07;99353.53;;;24.03;100.00
21545;BME280;10933;50.754;11.508;2023-07-29T05:52:34;99332.03;;;24.46;100.00
21545;BME280;10933;50.754;11.508;2023-07-29T05:55:00;99340.84;;;22.75;100.00
21545;BME280;10933;50.754;11.508;2023-07-29T05:57:27;99340.03;;;21.65;100.00
21545;BME280;10933;50.754;11.508;2023-07-29T05:59:53;99340.63;;;21.80;100.00
21545;BME280;10933;50.754;11.508;2023-07-29T06:02:19;99365.28;;;21.50;100.00
21545;BME280;10933;50.754;11.508;2023-07-29T06:04:46;99394.69;;;21.41;100.00
21545;BME280;10933;50.754;11.508;2023-07-29T06:07:12;99397.63;;;21.10;100.00
21545;BME280;10933;50.754;11.508;2023-07-29T06:09:38;99391.19;;;20.97;100.00
21545;BME280;10933;50.754;11.508;2023-07-29T06:12:05;99393.72;;;21.20;100.00
21545;BME280;10933;50.754;11.508;2023-07-29T06:14:31;99389.16;;;21.58;100.00
21545;BME280;10933;50.754;11.508;2023-07-29T06:16:57;99376.97;;;21.85;100.00
21545;BME280;10933;50.754;11.508;2023-07-29T06:19:23;99367.28;;;21.24;100.00
21545;BME280;10933;50.754;11.508;2023-07-29T06:21:49;99366.31;;;21.37;100.00
21545;BME280;10933;50.754;11.508;2023-07-29T06:24:15;99365.28;;;21.50;100.00
21545;BME280;10933;50.754;11.508;2023-07-29T06:26:41;99366.66;;;21.27;100.00
21545;BME280;10933;50.754;11.508;2023-07-29T06:29:08;99355.50;;;21.14;100.00
21545;BME280;10933;50.754;11.508;2023-07-29T06:31:34;99361.94;;;21.19;100.00
21545;BME280;10933;50.754;11.508;2023-07-29T06:34:00;99349.25;;;20.88;100.00
21545;BME280;10933;50.754;11.508;2023-07-29T06:36:26;99338.28;;;20.53;100.00
21545;BME280;10933;50.754;11.508;2023-07-29T06:38:52;99335.69;;;20.40;100.00
21545;BME280;10933;50.754;11.508;2023-07-29T06:41:18;99353.00;;;20.01;100.00
21545;BME280;10933;50.754;11.508;2023-07-29T06:43:44;99363.66;;;19.62;100.00
21545;BME280;10933;50.754;11.508;2023-07-29T06:46:10;99386.25;;;19.46;100.00
21545;BME280;10933;50.754;11.508;2023-07-29T06:48:36;99390.53;;;19.38;100.00
21545;BME280;10933;50.754;11.508;2023-07-29T06:51:03;99392.59;;;19.32;100.00
21545;BME280;10933;50.754;11.508;2023-07-29T06:53:29;99396.16;;;19.41;100.00
21545;BME280;10933;50.754;11.508;2023-07-29T06:55:55;99400.03;;;19.40;100.00
21545;BME280;10933;50.754;11.508;2023-07-29T06:58:21;99394.00;;;19.52;100.00
21545;BME280;10933;50.754;11.508;2023-07-29T07:00:48;99381.69;;;19.41;100.00
21545;BME280;10933;50.754;11.508;2023-07-29T07:03:14;99376.91;;;19.47;100.00
21545;BME280;10933;50.754;11.508;2023-07-29T07:05:40;99370.31;;;19.48;100.00
21545;BME280;10933;50.754;11.508;2023-07-29T07:08:06;99368.38;;;19.71;100.00
21545;BME280;10933;50.754;11.508;2023-07-29T07:10:32;99378.94;;;20.03;100.00
21545;BME280;10933;50.754;11.508;2023-07-29T07:12:59;99382.03;;;20.19;100.00
21545;BME280;10933;50.754;11.508;2023-07-29T07:15:26;99372.47;;;20.56;100.00
21545;BME280;10933;50.754;11.508;2023-07-29T07:17:52;99363.28;;;20.86;100.00
21545;BME280;10933;50.754;11.508;2023-07-29T07:20:18;99349.25;;;20.62;100.00
21545;BME280;10933;50.754;11.508;2023-07-29T07:22:44;99342.63;;;20.98;100.00
21545;BME280;10933;50.754;11.508;2023-07-29T07:25:11;99335.03;;;20.95;100.00
21545;BME280;10933;50.754;11.508;2023-07-29T07:27:37;99334.00;;;21.34;100.00
21545;BME280;10933;50.754;11.508;2023-07-29T07:30:04;99337.41;;;22.57;100.00
21545;BME280;10933;50.754;11.508;2023-07-29T07:32:30;99326.44;;;23.69;100.00
21545;BME280;10933;50.754;11.508;2023-07-29T07:34:56;99315.59;;;24.49;100.00
21545;BME280;10933;50.754;11.508;2023-07-29T07:37:22;99299.28;;;25.44;100.00
21545;BME280;10933;50.754;11.508;2023-07-29T07:39:48;99307.81;;;25.39;100.00
21545;BME280;10933;50.754;11.508;2023-07-29T07:42:14;99298.53;;;26.29;100.00
21545;BME280;10933;50.754;11.508;2023-07-29T07:44:41;99296.97;;;25.77;100.00
21545;BME280;10933;50.754;11.508;2023-07-29T07:47:07;99279.75;;;26.54;100.00
21545;BME280;10933;50.754;11.508;2023-07-29T07:49:33;99288.13;;;25.88;100.00
21545;BME280;10933;50.754;11.508;2023-07-29T07:51:59;99262.44;;;27.19;100.00
21545;BME280;10933;50.754;11.508;2023-07-29T07:54:25;99262.59;;;27.52;100.00
21545;BME280;10933;50.754;11.508;2023-07-29T07:56:51;99237.34;;;28.10;100.00
21545;BME280;10933;50.754;11.508;2023-07-29T07:59:17;99055.66;;;26.77;100.00
21545;BME280;10933;50.754;11.508;2023-07-29T08:01:43;98865.91;;;25.74;100.00
21545;BME280;10933;50.754;11.508;2023-07-29T08:04:09;98812.16;;;25.26;100.00
21545;BME280;10933;50.754;11.508;2023-07-29T08:06:35;98850.19;;;24.23;100.00
21545;BME280;10933;50.754;11.508;2023-07-29T08:09:01;98918.03;;;24.28;100.00
21545;BME280;10933;50.754;11.508;2023-07-29T08:11:28;98985.88;;;23.73;100.00
21545;BME280;10933;50.754;11.508;2023-07-29T08:13:54;99017.81;;;23.62;100.00
21545;BME280;10933;50.754;11.508;2023-07-29T08:16:20;99062.09;;;23.69;100.00
21545;BME280;10933;50.754;11.508;2023-07-29T08:18:46;99059.06;;;23.74;100.00
21545;BME280;10933;50.754;11.508;2023-07-29T08:21:13;99068.31;;;23.66;100.00
21545;BME280;10933;50.754;11.508;2023-07-29T08:23:39;99091.47;;;23.53;100.00
21545;BME280;10933;50.754;11.508;2023-07-29T08:26:06;99084.19;;;23.08;100.00
21545;BME280;10933;50.754;11.508;2023-07-29T08:28:37;99122.00;;;22.74;100.00
21545;BME280;10933;50.754;11.508;2023-07-29T08:31:04;99162.47;;;22.41;100.00
21545;BME280;10933;50.754;11.508;2023-07-29T08:33:31;99197.22;;;22.24;100.00
21545;BME280;10933;50.754;11.508;2023-07-29T08:35:57;99248.81;;;22.19;100.00
21545;BME280;10933;50.754;11.508;2023-07-29T08:38:23;99290.13;;;22.22;100.00
21545;BME280;10933;50.754;11.508;2023-07-29T08:40:54;99331.78;;;22.12;100.00
21545;BME280;10933;50.754;11.508;2023-07-29T08:43:28;99344.38;;;22.13;100.00
21545;BME280;10933;50.754;11.508;2023-07-29T08:45:55;99362.03;;;21.95;100.00
21545;BME280;10933;50.754;11.508;2023-07-29T08:48:36;99373.47;;;21.97;100.00
21545;BME280;10933;50.754;11.508;2023-07-29T08:51:05;99369.81;;;22.22;100.00
21545;BME280;10933;50.754;11.508;2023-07-29T08:53:33;99364.78;;;22.75;100.00
21545;BME280;10933;50.754;11.508;2023-07-29T08:56:00;99360.22;;;22.79;100.00
21545;BME280;10933;50.754;11.508;2023-07-29T08:58:27;99357.53;;;22.70;100.00
21545;BME280;10933;50.754;11.508;2023-07-29T09:00:53;99373.75;;;23.05;100.00
21545;BME280;10933;50.754;11.508;2023-07-29T09:03:20;99367.38;;;22.71;100.00
21545;BME280;10933;50.754;11.508;2023-07-29T09:05:47;99367.31;;;22.59;100.00
21545;BME280;10933;50.754;11.508;2023-07-29T09:08:14;99370.50;;;22.19;100.00
21545;BME280;10933;50.754;11.508;2023-07-29T09:10:40;99369.06;;;22.43;100.00
21545;BME280;10933;50.754;11.508;2023-07-29T09:13:07;99375.97;;;22.19;100.00
21545;BME280;10933;50.754;11.508;2023-07-29T09:15:35;99393.84;;;21.96;100.00
21545;BME280;10933;50.754;11.508;2023-07-29T09:18:12;99394.66;;;21.96;100.00
21545;BME280;10933;50.754;11.508;2023-07-29T09:20:40;99395.31;;;21.93;100.00
21545;BME280;10933;50.754;11.508;2023-07-29T09:23:09;99396.13;;;21.94;100.00
21545;BME280;10933;50.754;11.508;2023-07-29T09:25:36;99391.72;;;21.63;100.00
21545;BME280;10933;50.754;11.508;2023-07-29T09:28:12;99378.47;;;21.65;100.00
21545;BME280;10933;50.754;11.508;2023-07-29T09:30:42;99378.34;;;21.53;100.00
21545;BME280;10933;50.754;11.508;2023-07-29T09:33:11;99387.75;;;21.43;100.00
21545;BME280;10933;50.754;11.508;2023-07-29T09:35:38;99389.88;;;21.38;100.00
21545;BME280;10933;50.754;11.508;2023-07-29T09:38:07;99376.56;;;21.57;100.00
21545;BME280;10933;50.754;11.508;2023-07-29T09:40:41;99377.44;;;21.87;100.00
21545;BME280;10933;50.754;11.508;2023-07-29T09:43:09;99381.22;;;22.12;100.00
21545;BME280;10933;50.754;11.508;2023-07-29T09:45:36;99366.94;;;22.19;100.00
21545;BME280;10933;50.754;11.508;2023-07-29T09:48:04;99361.75;;;22.47;100.00
21545;BME280;10933;50.754;11.508;2023-07-29T09:50:35;99359.28;;;22.54;100.00
21545;BME280;10933;50.754;11.508;2023-07-29T09:53:03;99369.84;;;22.43;100.00
21545;BME280;10933;50.754;11.508;2023-07-29T09:55:33;99365.16;;;22.44;100.00
21545;BME280;10933;50.754;11.508;2023-07-29T09:58:00;99363.28;;;22.36;100.00
21545;BME280;10933;50.754;11.508;2023-07-29T10:00:29;99360.34;;;22.41;100.00
21545;BME280;10933;50.754;11.508;2023-07-29T10:02:56;99354.63;;;22.25;100.00
21545;BME280;10933;50.754;11.508;2023-07-29T10:05:25;99348.66;;;22.44;100.00
21545;BME280;10933;50.754;11.508;2023-07-29T10:07:51;99355.53;;;22.38;100.00
21545;BME280;10933;50.754;11.508;2023-07-29T10:10:17;99352.69;;;22.46;100.00
21545;BME280;10933;50.754;11.508;2023-07-29T10:12:44;99359.41;;;22.57;100.00
21545;BME280;10933;50.754;11.508;2023-07-29T10:15:10;99353.09;;;22.57;100.00
21545;BME280;10933;50.754;11.508;2023-07-29T10:17:37;99356.25;;;22.47;100.00
21545;BME280;10933;50.754;11.508;2023-07-29T10:20:05;99354.97;;;22.23;100.00
21545;BME280;10933;50.754;11.508;2023-07-29T10:22:39;99349.19;;;22.16;100.00
21545;BME280;10933;50.754;11.508;2023-07-29T10:25:17;99355.91;;;22.27;100.00
21545;BME280;10933;50.754;11.508;2023-07-29T10:28:00;99349.84;;;22.13;100.00
21545;BME280;10933;50.754;11.508;2023-07-29T10:30:28;99356.16;;;22.05;100.00
21545;BME280;10933;50.754;11.508;2023-07-29T10:32:55;99368.28;;;21.74;100.00
21545;BME280;10933;50.754;11.508;2023-07-29T10:35:24;99360.09;;;21.57;100.00
21545;BME280;10933;50.754;11.508;2023-07-29T10:37:51;99361.16;;;21.27;100.00
21545;BME280;10933;50.754;11.508;2023-07-29T10:40:19;99361.66;;;21.11;100.00
21545;BME280;10933;50.754;11.508;2023-07-29T10:43:03;99363.13;;;21.00;100.00
21545;BME280;10933;50.754;11.508;2023-07-29T10:45:40;99380.53;;;21.04;100.00
21545;BME280;10933;50.754;11.508;2023-07-29T10:51:29;99384.19;;;21.52;100.00
21545;BME280;10933;50.754;11.508;2023-07-29T10:53:58;99396.22;;;21.68;100.00
21545;BME280;10933;50.754;11.508;2023-07-29T10:56:29;99388.59;;;22.20;100.00
21545;BME280;10933;50.754;11.508;2023-07-29T11:01:58;99351.09;;;22.45;100.00
21545;BME280;10933;50.754;11.508;2023-07-29T11:04:29;99338.41;;;22.95;100.00
21545;BME280;10933;50.754;11.508;2023-07-29T11:07:19;99345.06;;;22.94;100.00
21545;BME280;10933;50.754;11.508;2023-07-29T11:12:37;99328.78;;;22.88;100.00
21545;BME280;10933;50.754;11.508;2023-07-29T11:20:20;99304.34;;;24.98;100.00
21545;BME280;10933;50.754;11.508;2023-07-29T11:22:46;99279.69;;;25.33;100.00
21545;BME280;10933;50.754;11.508;2023-07-29T11:25:15;99245.09;;;25.87;100.00
21545;BME280;10933;50.754;11.508;2023-07-29T11:27:42;99211.97;;;25.55;100.00
21545;BME280;10933;50.754;11.508;2023-07-29T11:30:11;99193.91;;;25.26;100.00
21545;BME280;10933;50.754;11.508;2023-07-29T11:32:39;99205.16;;;25.17;100.00
21545;BME280;10933;50.754;11.508;2023-07-29T11:35:07;99183.75;;;25.46;100.00
21545;BME280;10933;50.754;11.508;2023-07-29T11:37:34;99172.69;;;25.46;100.00
21545;BME280;10933;50.754;11.508;2023-07-29T11:40:01;99172.84;;;25.53;100.00
21545;BME280;10933;50.754;11.508;2023-07-29T11:42:28;99146.34;;;26.42;100.00
21545;BME280;10933;50.754;11.508;2023-07-29T11:44:57;99002.59;;;26.68;100.00
21545;BME280;10933;50.754;11.508;2023-07-29T11:47:24;98914.78;;;25.50;100.00
21545;BME280;10933;50.754;11.508;2023-07-29T11:49:50;98934.13;;;24.77;100.00
21545;BME280;10933;50.754;11.508;2023-07-29T11:52:17;98935.09;;;24.84;100.00
21545;BME280;10933;50.754;11.508;2023-07-29T11:54:47;98931.38;;;24.77;100.00
21545;BME280;10933;50.754;11.508;2023-07-29T11:57:14;98823.78;;;25.58;100.00
21545;BME280;10933;50.754;11.508;2023-07-29T11:59:41;98548.81;;;26.61;100.00
21545;BME280;10933;50.754;11.508;2023-07-29T12:02:13;98437.38;;;26.64;100.00
21545;BME280;10933;50.754;11.508;2023-07-29T12:04:41;98407.34;;;25.70;100.00
21545;BME280;10933;50.754;11.508;2023-07-29T12:07:09;98400.22;;;26.61;100.00
21545;BME280;10933;50.754;11.508;2023-07-29T12:09:35;98564.41;;;27.38;100.00
21545;BME280;10933;50.754;11.508;2023-07-29T12:12:06;98922.84;;;27.37;100.00
21545;BME280;10933;50.754;11.508;2023-07-29T12:14:33;99074.06;;;27.42;100.00
21545;BME280;10933;50.754;11.508;2023-07-29T12:17:04;99071.19;;;28.28;100.00
21545;BME280;10933;50.754;11.508;2023-07-29T12:19:36;99123.66;;;27.50;100.00
21545;BME280;10933;50.754;11.508;2023-07-29T12:22:04;99079.25;;;28.44;100.00
21545;BME280;10933;50.754;11.508;2023-07-29T12:24:32;99095.81;;;28.33;100.00
21545;BME280;10933;50.754;11.508;2023-07-29T12:26:59;99084.50;;;28.15;100.00
21545;BME280;10933;50.754;11.508;2023-07-29T12:29:26;99111.53;;;28.22;100.00
21545;BME280;10933;50.754;11.508;2023-07-29T12:32:03;99076.94;;;27.79;100.00
21545;BME280;10933;50.754;11.508;2023-07-29T12:34:30;99107.28;;;28.32;100.00
21545;BME280;10933;50.754;11.508;2023-07-29T12:36:58;99087.00;;;27.61;100.00
21545;BME280;10933;50.754;11.508;2023-07-29T12:39:27;99096.69;;;28.41;100.00
21545;BME280;10933;50.754;11.508;2023-07-29T12:41:54;99117.25;;;28.06;100.00
21545;BME280;10933;50.754;11.508;2023-07-29T12:44:22;99123.88;;;27.65;100.00
21545;BME280;10933;50.754;11.508;2023-07-29T12:46:48;99114.06;;;28.34;100.00
21545;BME280;10933;50.754;11.508;2023-07-29T12:49:15;99135.91;;;27.23;100.00
21545;BME280;10933;50.754;11.508;2023-07-29T12:51:41;99045.06;;;26.14;100.00
21545;BME280;10933;50.754;11.508;2023-07-29T12:54:07;98980.63;;;25.87;100.00
21545;BME280;10933;50.754;11.508;2023-07-29T12:56:34;98908.81;;;25.68;100.00
21545;BME280;10933;50.754;11.508;2023-07-29T12:59:01;98858.59;;;26.08;100.00
21545;BME280;10933;50.754;11.508;2023-07-29T13:01:28;98868.34;;;25.56;100.00